createdAt,value
2023-04-18T00:01:08.222Z,1.50
2023-04-18T00:04:48.121Z,1.50
2023-04-18T00:08:22.384Z,1.60
2023-04-18T00:15:55.575Z,1.33
2023-04-18T00:19:50.147Z,1.12
2023-04-18T00:23:15.394Z,1.15
2023-04-18T00:26:42.696Z,1.20
2023-04-18T00:30:34.917Z,1.40
2023-04-18T00:34:08.913Z,1.30
2023-04-18T00:37:15.228Z,1.40
2023-04-18T00:40:17.843Z,1.77
2023-04-18T00:44:02.044Z,1.30
2023-04-18T00:47:19.924Z,1.20
2023-04-18T00:50:38.245Z,1.33
2023-04-18T00:54:09.131Z,1.55
2023-04-18T00:57:54.297Z,1.20
2023-04-18T01:01:03.295Z,1.40
2023-04-18T01:04:24.133Z,1.50
2023-04-18T01:07:36.006Z,1.23
2023-04-18T01:10:54.645Z,1.55
2023-04-18T01:14:22.243Z,1.12
2023-04-18T01:17:38.003Z,1.60
2023-04-18T01:20:53.242Z,1.90
2023-04-18T01:24:38.064Z,1.75
2023-04-18T01:28:06.934Z,1.87
2023-04-18T01:31:41.594Z,1.80
2023-04-18T01:35:07.289Z,1.85
2023-04-18T01:42:37.488Z,1.70
2023-04-18T01:45:56.872Z,1.45
2023-04-18T01:49:30.103Z,1.62
2023-04-18T01:53:24.838Z,1.45
2023-04-18T01:57:04.467Z,1.30
2023-04-18T02:00:31.068Z,1.70
2023-04-18T02:04:03.614Z,1.48
2023-04-18T02:07:22.215Z,1.60
2023-04-18T02:10:52.442Z,1.67
2023-04-18T02:14:10.877Z,2.12
2023-04-18T02:17:54.147Z,1.83
2023-04-18T02:21:27.052Z,1.80
2023-04-18T02:24:51.620Z,1.60
2023-04-18T02:28:13.756Z,2.10
2023-04-18T02:31:22.831Z,1.85
2023-04-18T02:39:03.951Z,1.85
2023-04-18T02:42:08.126Z,1.60
2023-04-18T02:45:58.242Z,1.98
2023-04-18T02:49:44.695Z,1.80
2023-04-18T02:53:20.090Z,1.80
2023-04-18T02:57:02.208Z,2.15
2023-04-18T03:26:43.118Z,2.12
2023-04-18T03:30:21.485Z,1.98
2023-04-18T03:34:06.489Z,1.75
2023-04-18T03:37:43.999Z,2.12
2023-04-18T03:41:12.371Z,2.60
2023-04-18T03:44:55.993Z,2.30
2023-04-18T03:48:23.575Z,2.30
2023-04-18T04:02:57.613Z,2.67
2023-04-18T04:06:35.043Z,3.03
2023-04-18T04:20:50.169Z,2.05
2023-04-18T04:24:29.526Z,2.62
2023-04-18T04:28:01.998Z,2.75
2023-04-18T04:31:30.254Z,2.80
2023-04-18T04:35:01.302Z,3.45
2023-04-18T04:38:40.428Z,3.20
2023-04-18T04:42:30.395Z,3.83
2023-04-18T04:46:00.163Z,2.97
2023-04-18T04:49:36.532Z,2.85
2023-04-18T04:53:27.182Z,3.08
2023-04-18T04:57:04.774Z,3.37
2023-04-18T05:00:24.056Z,3.15
2023-04-18T05:04:04.121Z,2.80
2023-04-18T05:08:32.710Z,3.05
2023-04-18T05:12:11.514Z,3.17
2023-04-18T05:15:56.917Z,3.05
2023-04-18T05:19:27.716Z,3.05
2023-04-18T05:22:48.846Z,2.70
2023-04-18T05:26:34.931Z,3.42
2023-04-18T05:30:49.033Z,3.00
2023-04-18T05:34:30.403Z,3.50
2023-04-18T05:38:10.258Z,2.67
2023-04-18T05:41:50.927Z,3.37
2023-04-18T05:45:22.098Z,3.03
2023-04-18T05:48:58.307Z,3.58
2023-04-18T05:52:16.990Z,3.92
2023-04-18T05:55:50.820Z,3.72
2023-04-18T05:59:30.048Z,3.90
2023-04-18T06:02:53.118Z,3.60
2023-04-18T06:06:23.055Z,3.40
2023-04-18T06:09:26.942Z,3.00
2023-04-18T06:12:31.848Z,3.22
2023-04-18T06:15:36.836Z,2.92
2023-04-18T06:18:43.250Z,3.10
2023-04-18T06:22:18.665Z,2.58
2023-04-18T06:25:24.584Z,2.85
2023-04-18T06:28:27.994Z,2.72
2023-04-18T06:31:33.450Z,2.80
2023-04-18T06:34:40.966Z,2.35
2023-04-18T06:37:44.913Z,3.12
2023-04-18T06:40:50.279Z,2.75
2023-04-18T06:44:13.273Z,2.58
2023-04-18T06:47:16.785Z,2.92
2023-04-18T06:50:19.951Z,2.28
2023-04-18T06:53:24.903Z,2.85
2023-04-18T06:56:30.258Z,2.78
2023-04-18T06:59:33.091Z,2.45
2023-04-18T07:02:41.508Z,2.08
2023-04-18T07:05:45.307Z,2.33
2023-04-18T07:08:53.311Z,2.43
2023-04-18T07:12:17.277Z,2.30
2023-04-18T07:15:21.228Z,2.50
2023-04-18T07:18:36.699Z,2.42
2023-04-18T07:22:01.032Z,2.28
2023-04-18T07:25:05.325Z,2.55
2023-04-18T07:28:10.770Z,2.15
2023-04-18T07:31:38.876Z,2.25
2023-04-18T07:34:42.918Z,1.85
2023-04-18T07:37:47.931Z,1.65
2023-04-18T07:41:01.428Z,1.55
2023-04-18T07:44:07.374Z,1.17
2023-04-18T07:47:11.198Z,0.88
2023-04-18T07:50:14.333Z,0.88
2023-04-18T07:53:19.495Z,0.90
2023-04-18T07:56:43.786Z,1.10
2023-04-18T07:59:53.786Z,1.17
2023-04-18T08:03:17.099Z,1.12
2023-04-18T08:06:21.290Z,1.20
2023-04-18T08:09:52.794Z,1.00
2023-04-18T08:13:18.431Z,0.90
2023-04-18T08:16:43.388Z,0.70
2023-04-18T08:20:07.282Z,0.80
2023-04-18T08:23:13.522Z,0.90
2023-04-18T08:29:53.313Z,0.95
2023-04-18T08:32:57.951Z,0.85
2023-04-18T08:36:25.174Z,0.80
2023-04-18T08:39:28.226Z,0.80
2023-04-18T08:42:35.460Z,0.70
2023-04-18T08:45:38.790Z,0.75
2023-04-18T08:48:49.510Z,0.70
2023-04-18T08:51:54.209Z,0.70
2023-04-18T08:54:59.725Z,0.60
2023-04-18T08:58:28.014Z,0.88
2023-04-18T09:01:54.317Z,0.80
2023-04-18T09:04:59.886Z,1.30
2023-04-18T09:08:24.914Z,0.90
2023-04-18T09:11:31.898Z,0.88
2023-04-18T09:14:43.216Z,0.60
2023-04-18T09:18:10.571Z,0.80
2023-04-18T09:25:43.572Z,1.73
2023-04-18T09:28:53.985Z,0.80
2023-04-18T09:32:02.196Z,1.60
2023-04-18T09:35:06.521Z,1.08
2023-04-18T09:38:10.109Z,0.80
2023-04-18T09:41:16.835Z,1.05
2023-04-18T09:44:22.351Z,1.00
2023-04-18T09:47:27.846Z,1.10
2023-04-18T09:50:32.783Z,0.77
2023-04-18T09:53:44.661Z,0.80
2023-04-18T09:56:54.365Z,0.90
2023-04-18T10:00:14.407Z,0.60
2023-04-18T10:03:45.391Z,0.68
2023-04-18T10:06:49.062Z,0.40
2023-04-18T10:09:56.513Z,0.80
2023-04-18T10:13:01.735Z,0.70
2023-04-18T10:16:07.646Z,0.80
2023-04-18T10:19:26.368Z,0.70
2023-04-18T10:22:52.733Z,0.80
2023-04-18T10:26:06.975Z,0.62
2023-04-18T10:29:10.338Z,0.80
2023-04-18T10:32:48.756Z,0.80
2023-04-18T10:36:08.005Z,0.60
2023-04-18T10:39:22.541Z,0.85
2023-04-18T10:42:52.855Z,0.60
2023-04-18T10:46:24.288Z,0.60
2023-04-18T10:49:56.210Z,0.90
2023-04-18T10:53:07.608Z,0.60
2023-04-18T10:56:14.607Z,0.77
2023-04-18T10:59:22.732Z,0.70
2023-04-18T11:05:37.338Z,0.80
2023-04-18T11:08:45.147Z,0.90
2023-04-18T11:12:06.575Z,0.75
2023-04-18T11:15:11.431Z,0.65
2023-04-18T11:18:48.026Z,0.50
2023-04-18T11:21:52.161Z,0.73
2023-04-18T11:25:08.484Z,0.70
2023-04-18T11:28:13.726Z,0.80
2023-04-18T11:31:39.783Z,0.77
2023-04-18T11:34:43.360Z,1.20
2023-04-18T11:38:01.516Z,0.82
2023-04-18T11:41:13.053Z,0.70
2023-04-18T11:44:23.436Z,1.05
2023-04-18T11:47:46.968Z,0.77
2023-04-18T11:50:51.316Z,0.70
2023-04-18T11:53:55.085Z,0.70
2023-04-18T11:57:25.791Z,0.90
2023-04-18T12:00:52.652Z,0.70
2023-04-18T12:07:34.642Z,0.65
2023-04-18T12:11:04.293Z,0.68
2023-04-18T12:14:08.499Z,0.65
2023-04-18T12:17:20.534Z,0.60
2023-04-18T12:20:37.941Z,0.80
2023-04-18T12:24:13.963Z,0.70
2023-04-18T12:27:17.811Z,0.62
2023-04-18T12:30:28.119Z,0.70
2023-04-18T12:33:51.675Z,0.65
2023-04-18T12:36:57.047Z,0.70
2023-04-18T12:40:04.824Z,0.80
2023-04-18T12:43:31.936Z,0.70
2023-04-18T12:46:55.077Z,0.62
2023-04-18T12:50:22.173Z,0.70
2023-04-18T12:53:26.315Z,0.80
2023-04-18T12:56:46.566Z,1.00
2023-04-18T13:00:15.086Z,0.90
2023-04-18T13:04:11.703Z,0.90
2023-04-18T13:07:21.194Z,0.98
2023-04-18T13:10:47.832Z,0.60
2023-04-18T13:14:17.450Z,0.95
2023-04-18T13:17:44.585Z,0.73
2023-04-18T13:20:53.020Z,0.73
2023-04-18T13:24:17.820Z,0.70
2023-04-18T13:27:21.574Z,0.85
2023-04-18T13:30:41.666Z,0.88
2023-04-18T13:34:13.806Z,0.98
2023-04-18T13:37:31.544Z,0.70
2023-04-18T13:41:12.748Z,0.80
2023-04-18T13:44:30.140Z,0.68
2023-04-18T13:47:54.494Z,1.00
2023-04-18T13:51:25.097Z,0.90
2023-04-18T13:54:33.098Z,1.35
2023-04-18T13:57:54.607Z,1.00
2023-04-18T14:01:38.523Z,0.90
2023-04-18T14:05:03.713Z,1.00
2023-04-18T14:08:10.034Z,0.80
2023-04-18T14:11:21.945Z,0.70
2023-04-18T14:14:58.935Z,0.90
2023-04-18T14:18:39.826Z,0.73
2023-04-18T14:22:15.133Z,0.80
2023-04-18T14:25:30.127Z,0.80
2023-04-18T14:28:50.532Z,0.80
2023-04-18T14:32:18.233Z,0.90
2023-04-18T14:35:37.202Z,0.90
2023-04-18T14:39:40.407Z,0.98
2023-04-18T14:43:04.335Z,1.10
2023-04-18T14:46:32.025Z,0.90
2023-04-18T14:49:35.315Z,0.90
2023-04-18T14:52:41.930Z,0.90
2023-04-18T14:55:47.427Z,0.70
2023-04-18T14:58:50.767Z,0.77
2023-04-18T15:01:55.781Z,0.98
2023-04-18T15:05:28.075Z,0.80
2023-04-18T15:08:52.710Z,1.05
2023-04-18T15:12:16.575Z,1.15
2023-04-18T15:15:22.874Z,0.95
2023-04-18T15:18:29.660Z,1.08
2023-04-18T15:21:39.430Z,1.30
2023-04-18T15:24:48.098Z,1.12
2023-04-18T15:28:24.461Z,1.10
2023-04-18T15:32:37.018Z,0.80
2023-04-18T15:36:13.229Z,1.23
2023-04-18T15:39:50.131Z,1.12
2023-04-18T15:43:07.037Z,1.12
2023-04-18T15:46:26.460Z,1.00
2023-04-18T15:50:01.331Z,0.97
2023-04-18T15:53:41.886Z,1.10
2023-04-18T15:57:13.242Z,0.95
2023-04-18T16:00:40.060Z,1.15
2023-04-18T16:04:14.275Z,0.80
2023-04-18T16:07:31.337Z,1.37
2023-04-18T16:11:15.216Z,0.90
2023-04-18T16:14:41.267Z,0.93
2023-04-18T16:18:07.057Z,0.90
2023-04-18T16:21:23.947Z,1.12
2023-04-18T16:24:43.325Z,0.98
2023-04-18T16:28:10.608Z,0.85
2023-04-18T16:31:30.233Z,1.20
2023-04-18T16:34:47.266Z,1.10
2023-04-18T16:38:08.883Z,1.17
2023-04-18T16:41:35.326Z,1.00
2023-04-18T16:45:01.996Z,1.20
2023-04-18T16:48:19.690Z,1.40
2023-04-18T16:51:53.162Z,1.35
2023-04-18T16:55:18.637Z,1.40
2023-04-18T16:59:01.638Z,1.20
2023-04-18T17:02:40.376Z,1.48
2023-04-18T17:07:11.221Z,1.40
2023-04-18T17:15:02.125Z,1.15
2023-04-18T17:18:43.337Z,1.25
2023-04-18T17:22:27.317Z,1.25
2023-04-18T17:26:09.519Z,2.15
2023-04-18T17:29:41.031Z,1.40
2023-04-18T17:33:16.861Z,1.73
2023-04-18T17:37:06.384Z,1.80
2023-04-18T17:40:59.925Z,1.73
2023-04-18T17:44:43.208Z,2.03
2023-04-18T17:48:06.121Z,1.45
2023-04-18T17:51:52.333Z,1.60
2023-04-18T17:55:15.020Z,1.58
2023-04-18T17:58:55.957Z,1.90
2023-04-18T18:02:32.115Z,1.67
2023-04-18T18:10:10.111Z,1.83
2023-04-18T18:13:47.178Z,1.85
2023-04-18T18:17:15.806Z,1.62
2023-04-18T18:20:48.094Z,2.53
2023-04-18T18:24:14.277Z,2.37
2023-04-18T18:27:37.715Z,1.90
2023-04-18T18:31:11.898Z,1.67
2023-04-18T18:35:06.226Z,1.60
2023-04-18T18:38:44.131Z,1.55
2023-04-18T18:42:14.381Z,1.77
2023-04-18T18:46:12.635Z,1.90
2023-04-18T18:49:51.650Z,2.47
2023-04-18T18:53:31.841Z,2.70
2023-04-18T18:56:51.903Z,2.65
2023-04-18T19:00:21.310Z,2.78
2023-04-18T19:03:41.207Z,3.70
2023-04-18T19:07:01.087Z,4.20
2023-04-18T19:10:27.466Z,3.92
2023-04-18T19:14:08.212Z,2.17
2023-04-18T19:17:25.164Z,1.85
2023-04-18T19:20:51.721Z,2.67
2023-04-18T19:24:25.763Z,2.85
2023-04-18T19:27:40.087Z,2.67
2023-04-18T19:31:09.843Z,2.05
2023-04-18T19:34:37.729Z,2.10
2023-04-18T19:38:01.765Z,1.40
2023-04-18T19:41:41.799Z,1.90
2023-04-18T19:45:01.616Z,1.60
2023-04-18T19:48:31.959Z,1.75
2023-04-18T19:51:52.603Z,1.52
2023-04-18T19:58:58.178Z,1.50
2023-04-18T20:02:20.358Z,1.92
2023-04-18T20:05:41.035Z,1.42
2023-04-18T20:09:17.475Z,1.50
2023-04-18T20:12:56.694Z,2.15
2023-04-18T20:16:15.777Z,1.90
2023-04-18T20:19:50.104Z,1.73
2023-04-18T20:23:07.472Z,1.58
2023-04-18T20:26:32.986Z,1.60
2023-04-18T20:30:05.333Z,1.50
2023-04-18T20:33:38.595Z,1.73
2023-04-18T20:37:20.123Z,1.55
2023-04-18T20:40:45.064Z,1.60
2023-04-18T20:44:10.691Z,1.67
2023-04-18T20:47:47.891Z,1.23
2023-04-18T20:51:07.663Z,1.30
2023-04-18T20:54:49.780Z,0.90
2023-04-18T20:58:26.270Z,1.07
2023-04-18T21:02:02.595Z,1.50
2023-04-18T21:05:33.344Z,1.33
2023-04-18T21:08:50.774Z,0.95
2023-04-18T21:12:23.509Z,1.02
2023-04-18T21:15:52.650Z,1.10
2023-04-18T21:19:29.822Z,1.05
2023-04-18T21:22:57.093Z,0.95
2023-04-18T21:26:14.331Z,1.20
2023-04-18T21:29:48.637Z,1.17
2023-04-18T21:33:06.063Z,1.40
2023-04-18T21:36:24.327Z,1.50
2023-04-18T21:39:58.533Z,1.50
2023-04-18T21:43:15.712Z,1.30
2023-04-18T21:46:48.378Z,1.45
2023-04-18T21:50:16.009Z,1.12
2023-04-18T21:53:43.180Z,1.35
2023-04-18T21:57:19.382Z,1.62
2023-04-18T22:00:50.378Z,1.10
2023-04-18T22:04:09.344Z,1.42
2023-04-18T22:07:30.656Z,1.48
2023-04-18T22:10:50.546Z,1.27
2023-04-18T22:14:21.019Z,1.70
2023-04-18T22:17:38.266Z,1.25
2023-04-18T22:21:15.081Z,1.60
2023-04-18T22:24:37.068Z,1.40
2023-04-18T22:27:54.156Z,1.73
2023-04-18T22:31:30.332Z,1.80
2023-04-18T22:35:05.777Z,1.70
2023-04-18T22:38:35.590Z,1.60
2023-04-18T22:42:02.780Z,1.60
2023-04-18T22:45:41.012Z,1.30
2023-04-18T22:48:55.584Z,1.52
2023-04-18T22:52:40.362Z,1.67
2023-04-18T22:55:59.978Z,1.45
2023-04-18T22:59:33.997Z,1.30
2023-04-18T23:03:01.515Z,1.67
2023-04-18T23:06:32.573Z,1.48
2023-04-18T23:09:59.683Z,1.40
2023-04-18T23:13:28.952Z,1.60
2023-04-18T23:17:06.106Z,1.55
2023-04-18T23:20:42.142Z,1.60
2023-04-18T23:24:17.107Z,1.50
2023-04-18T23:27:51.608Z,1.40
2023-04-18T23:31:25.027Z,1.42
2023-04-18T23:34:51.832Z,1.80
2023-04-18T23:38:28.734Z,1.60
2023-04-18T23:42:02.371Z,1.50
2023-04-18T23:45:32.374Z,1.80
2023-04-18T23:49:02.103Z,1.33
2023-04-18T23:52:19.090Z,1.42
2023-04-18T23:55:53.829Z,1.20
2023-04-18T23:59:14.899Z,1.62
